createdAt,value
2019-01-13T00:02:23.476Z,6.60
2019-01-13T00:04:53.057Z,6.60
2019-01-13T00:07:22.703Z,6.60
2019-01-13T00:09:52.204Z,6.70
2019-01-13T00:12:21.723Z,6.80
2019-01-13T00:14:51.343Z,6.80
2019-01-13T00:17:21.021Z,6.80
2019-01-13T00:19:50.599Z,6.70
2019-01-13T00:22:20.111Z,6.70
2019-01-13T00:24:49.689Z,6.80
2019-01-13T00:27:19.208Z,6.80
2019-01-13T00:29:48.747Z,6.80
2019-01-13T00:32:18.375Z,6.80
2019-01-13T00:34:47.933Z,6.90
2019-01-13T00:37:17.468Z,6.80
2019-01-13T00:39:47.039Z,6.90
2019-01-13T00:42:16.761Z,6.90
2019-01-13T00:44:46.404Z,6.90
2019-01-13T00:47:16.020Z,6.90
2019-01-13T00:49:45.627Z,6.80
2019-01-13T00:52:15.298Z,6.80
2019-01-13T00:54:45.766Z,6.80
2019-01-13T00:57:15.487Z,6.80
2019-01-13T00:59:45.066Z,6.90
2019-01-13T01:02:14.864Z,7.00
2019-01-13T01:04:44.619Z,6.90
2019-01-13T01:07:14.300Z,6.90
2019-01-13T01:09:44.019Z,6.90
2019-01-13T01:12:13.834Z,6.80
2019-01-13T01:14:43.398Z,6.90
2019-01-13T01:17:13.056Z,6.90
2019-01-13T01:19:42.553Z,7.00
2019-01-13T01:22:12.265Z,6.90
2019-01-13T01:24:41.858Z,6.90
2019-01-13T01:27:11.416Z,6.90
2019-01-13T01:29:41.021Z,6.90
2019-01-13T01:32:10.766Z,6.90
2019-01-13T01:34:40.475Z,6.90
2019-01-13T01:37:10.373Z,6.90
2019-01-13T01:39:39.950Z,6.80
2019-01-13T01:42:09.500Z,6.80
2019-01-13T01:44:38.980Z,6.80
2019-01-13T01:47:08.550Z,6.90
2019-01-13T01:49:38.091Z,6.90
2019-01-13T01:52:07.624Z,6.90
2019-01-13T01:54:37.287Z,6.90
2019-01-13T01:57:06.942Z,7.00
2019-01-13T01:59:37.164Z,7.10
2019-01-13T02:02:07.915Z,7.10
2019-01-13T02:04:37.597Z,7.00
2019-01-13T02:07:07.180Z,7.00
2019-01-13T02:09:37.058Z,7.00
2019-01-13T02:12:06.730Z,6.90
2019-01-13T02:14:36.293Z,6.90
2019-01-13T02:17:06.069Z,6.90
2019-01-13T02:19:35.619Z,6.90
2019-01-13T02:22:05.240Z,6.90
2019-01-13T02:24:35.049Z,6.90
2019-01-13T02:27:04.738Z,6.90
2019-01-13T02:29:34.697Z,6.90
2019-01-13T02:32:04.381Z,6.90
2019-01-13T02:34:36.363Z,7.00
2019-01-13T02:37:05.897Z,7.00
2019-01-13T02:39:35.568Z,7.00
2019-01-13T02:42:05.181Z,7.00
2019-01-13T02:44:34.832Z,6.90
2019-01-13T02:47:04.342Z,6.90
2019-01-13T02:49:34.307Z,6.90
2019-01-13T02:52:03.882Z,6.90
2019-01-13T02:54:33.594Z,6.90
2019-01-13T02:57:03.132Z,6.80
2019-01-13T02:59:32.799Z,6.90
2019-01-13T03:02:02.564Z,6.90
2019-01-13T03:04:32.131Z,6.90
2019-01-13T03:07:01.745Z,6.90
2019-01-13T03:09:31.451Z,7.00
2019-01-13T03:12:01.161Z,7.00
2019-01-13T03:14:30.861Z,7.00
2019-01-13T03:17:00.482Z,7.10
2019-01-13T03:19:29.954Z,7.00
2019-01-13T03:21:59.676Z,7.00
2019-01-13T03:24:29.254Z,7.00
2019-01-13T03:26:58.928Z,7.00
2019-01-13T03:29:28.519Z,7.00
2019-01-13T03:31:58.177Z,7.10
2019-01-13T03:34:27.838Z,7.10
2019-01-13T03:36:57.463Z,7.20
2019-01-13T03:39:27.156Z,7.10
2019-01-13T03:41:56.866Z,7.10
2019-01-13T03:44:26.494Z,7.20
2019-01-13T03:46:56.109Z,7.10
2019-01-13T03:49:25.650Z,7.10
2019-01-13T03:51:55.208Z,7.10
2019-01-13T03:54:25.099Z,7.10
2019-01-13T03:56:54.658Z,7.10
2019-01-13T03:59:24.696Z,7.10
2019-01-13T04:01:54.666Z,7.20
2019-01-13T04:04:24.665Z,7.20
2019-01-13T04:06:54.339Z,7.10
2019-01-13T04:09:24.033Z,7.20
2019-01-13T04:11:54.198Z,7.10
2019-01-13T04:14:24.067Z,7.10
2019-01-13T04:16:54.380Z,7.20
2019-01-13T04:19:24.093Z,7.10
2019-01-13T04:21:53.774Z,7.10
2019-01-13T04:24:23.512Z,7.10
2019-01-13T04:26:53.048Z,7.20
2019-01-13T04:29:25.874Z,7.20
2019-01-13T04:31:55.493Z,7.20
2019-01-13T04:34:25.442Z,7.10
2019-01-13T04:36:55.538Z,7.20
2019-01-13T04:39:25.148Z,7.10
2019-01-13T04:41:54.770Z,7.10
2019-01-13T04:44:24.547Z,7.20
2019-01-13T04:46:54.169Z,7.20
2019-01-13T04:49:23.880Z,7.20
2019-01-13T04:51:53.516Z,7.30
2019-01-13T04:54:23.121Z,7.30
2019-01-13T04:56:52.697Z,7.20
2019-01-13T04:59:22.235Z,7.20
2019-01-13T05:01:51.886Z,7.20
2019-01-13T05:04:21.682Z,7.30
2019-01-13T05:06:53.319Z,7.30
2019-01-13T05:09:42.302Z,7.30
2019-01-13T05:12:11.781Z,7.40
2019-01-13T05:14:41.463Z,7.30
2019-01-13T05:17:11.180Z,7.30
2019-01-13T05:19:40.783Z,7.30
2019-01-13T05:22:11.175Z,7.40
2019-01-13T05:24:40.759Z,7.40
2019-01-13T05:27:10.301Z,7.40
2019-01-13T05:29:39.846Z,7.40
2019-01-13T05:32:09.458Z,7.40
2019-01-13T05:34:38.992Z,7.40
2019-01-13T05:37:08.621Z,7.30
2019-01-13T05:39:38.191Z,7.40
2019-01-13T05:42:07.712Z,7.40
2019-01-13T05:44:37.351Z,7.30
2019-01-13T05:47:06.894Z,7.40
2019-01-13T05:49:36.409Z,7.40
2019-01-13T05:52:06.140Z,7.40
2019-01-13T05:54:35.802Z,7.30
2019-01-13T05:57:05.437Z,7.30
2019-01-13T05:59:35.130Z,7.40
2019-01-13T06:02:04.926Z,7.40
2019-01-13T06:04:34.720Z,7.30
2019-01-13T06:07:04.340Z,7.30
2019-01-13T06:09:33.879Z,7.30
2019-01-13T06:12:03.389Z,7.30
2019-01-13T06:14:33.075Z,7.30
2019-01-13T06:17:02.652Z,7.20
2019-01-13T06:19:34.111Z,7.30
2019-01-13T06:22:03.660Z,7.30
2019-01-13T06:24:33.285Z,7.40
2019-01-13T06:27:02.823Z,7.40
2019-01-13T06:29:32.446Z,7.40
2019-01-13T06:32:02.201Z,7.40
2019-01-13T06:34:34.079Z,7.30
2019-01-13T06:37:03.645Z,7.30
2019-01-13T06:39:33.416Z,7.30
2019-01-13T06:42:03.160Z,7.30
2019-01-13T06:44:32.739Z,7.30
2019-01-13T06:47:02.394Z,7.30
2019-01-13T06:49:32.171Z,7.30
2019-01-13T06:52:01.807Z,7.30
2019-01-13T06:54:31.412Z,7.30
2019-01-13T06:57:01.003Z,7.30
2019-01-13T06:59:30.692Z,7.30
2019-01-13T07:02:03.428Z,7.40
2019-01-13T07:04:31.628Z,7.30
2019-01-13T07:07:01.149Z,7.30
2019-01-13T07:09:30.865Z,7.30
2019-01-13T07:12:00.430Z,7.30
2019-01-13T07:14:30.126Z,7.30
2019-01-13T07:16:59.939Z,7.30
2019-01-13T07:19:29.597Z,7.40
2019-01-13T07:21:59.190Z,7.40
2019-01-13T07:24:28.658Z,7.40
2019-01-13T07:26:58.264Z,7.40
2019-01-13T07:29:27.830Z,7.40
2019-01-13T07:31:57.433Z,7.40
2019-01-13T07:34:27.122Z,7.40
2019-01-13T07:36:56.655Z,7.40
2019-01-13T07:39:26.092Z,7.50
2019-01-13T07:41:55.787Z,7.50
2019-01-13T07:44:26.449Z,7.50
2019-01-13T07:46:55.980Z,7.60
2019-01-13T07:49:25.534Z,7.50
2019-01-13T07:51:55.362Z,7.60
2019-01-13T07:54:24.945Z,7.60
2019-01-13T07:56:54.478Z,7.60
2019-01-13T07:59:24.184Z,7.60
2019-01-13T08:01:53.817Z,7.70
2019-01-13T08:04:23.534Z,7.70
2019-01-13T08:06:53.007Z,7.70
2019-01-13T08:09:22.514Z,7.70
2019-01-13T08:11:52.102Z,7.70
2019-01-13T08:14:21.668Z,7.80
2019-01-13T08:16:51.202Z,7.80
2019-01-13T08:19:21.003Z,7.90
2019-01-13T08:21:50.448Z,7.90
2019-01-13T08:24:19.988Z,7.90
2019-01-13T08:26:49.558Z,7.90
2019-01-13T08:29:19.033Z,8.00
2019-01-13T08:31:48.597Z,8.00
2019-01-13T08:34:18.092Z,8.10
2019-01-13T08:36:47.726Z,8.10
2019-01-13T08:39:17.289Z,8.10
2019-01-13T08:41:46.862Z,8.20
2019-01-13T08:44:16.326Z,8.10
2019-01-13T08:46:45.904Z,8.20
2019-01-13T08:49:15.481Z,8.30
2019-01-13T08:51:44.976Z,8.20
2019-01-13T08:54:16.355Z,8.30
2019-01-13T08:56:45.997Z,8.40
2019-01-13T08:59:15.667Z,8.40
2019-01-13T09:01:45.192Z,8.40
2019-01-13T09:04:14.881Z,8.50
2019-01-13T09:06:44.569Z,8.50
2019-01-13T09:09:14.188Z,8.40
2019-01-13T09:11:44.111Z,8.50
2019-01-13T09:14:13.755Z,8.50
2019-01-13T09:16:43.214Z,8.60
2019-01-13T09:19:13.033Z,8.50
2019-01-13T09:21:42.490Z,8.60
2019-01-13T09:24:12.210Z,8.60
2019-01-13T09:26:41.731Z,8.60
2019-01-13T09:29:11.274Z,8.70
2019-01-13T09:31:40.920Z,8.70
2019-01-13T09:34:10.426Z,8.70
2019-01-13T09:36:39.992Z,8.70
2019-01-13T09:39:09.606Z,8.80
2019-01-13T09:41:39.071Z,8.80
2019-01-13T09:44:09.068Z,8.80
2019-01-13T09:46:38.547Z,8.80
2019-01-13T09:49:08.117Z,8.90
2019-01-13T09:51:37.648Z,8.90
2019-01-13T09:54:07.163Z,8.90
2019-01-13T09:56:36.771Z,8.80
2019-01-13T09:59:06.531Z,8.90
2019-01-13T10:01:35.971Z,8.80
2019-01-13T10:04:05.463Z,8.90
2019-01-13T10:06:35.085Z,8.80
2019-01-13T10:09:07.662Z,8.80
2019-01-13T10:11:37.690Z,8.90
2019-01-13T10:14:07.361Z,8.90
2019-01-13T10:16:37.023Z,8.90
2019-01-13T10:19:06.497Z,8.90
2019-01-13T10:21:35.991Z,8.90
2019-01-13T10:24:05.615Z,9.00
2019-01-13T10:26:35.583Z,9.00
2019-01-13T10:29:05.186Z,9.00
2019-01-13T10:31:34.813Z,9.00
2019-01-13T10:34:04.646Z,9.00
2019-01-13T10:36:34.325Z,9.00
2019-01-13T10:39:05.846Z,9.00
2019-01-13T10:41:35.424Z,9.00
2019-01-13T10:44:05.087Z,9.00
2019-01-13T10:46:35.302Z,9.10
2019-01-13T10:49:04.900Z,9.10
2019-01-13T10:51:34.681Z,9.10
2019-01-13T10:54:09.065Z,9.10
2019-01-13T10:56:35.905Z,9.10
2019-01-13T10:59:05.508Z,9.10
2019-01-13T11:01:35.075Z,9.10
2019-01-13T11:04:04.596Z,9.10
2019-01-13T11:06:34.326Z,9.10
2019-01-13T11:09:06.959Z,9.10
2019-01-13T11:11:36.513Z,9.10
2019-01-13T11:14:06.215Z,9.00
2019-01-13T11:16:35.718Z,9.10
2019-01-13T11:19:05.593Z,9.10
2019-01-13T11:21:35.309Z,9.10
2019-01-13T11:24:04.919Z,9.10
2019-01-13T11:26:34.530Z,9.10
2019-01-13T11:29:04.712Z,9.10
2019-01-13T11:31:34.260Z,9.00
2019-01-13T11:34:03.861Z,9.10
2019-01-13T11:36:33.428Z,9.10
2019-01-13T11:39:03.690Z,9.10
2019-01-13T11:41:33.241Z,9.00
2019-01-13T11:44:03.195Z,9.10
2019-01-13T11:46:32.688Z,9.10
2019-01-13T11:49:02.504Z,9.10
2019-01-13T11:51:32.067Z,9.10
2019-01-13T11:54:01.712Z,9.10
2019-01-13T11:56:34.022Z,9.10
2019-01-13T11:59:03.780Z,9.10
2019-01-13T12:01:33.487Z,9.10
2019-01-13T12:04:03.040Z,9.10
2019-01-13T12:06:32.677Z,9.00
2019-01-13T12:09:02.177Z,9.00
2019-01-13T12:11:31.738Z,9.00
2019-01-13T12:14:01.372Z,9.00
2019-01-13T12:16:30.939Z,9.00
2019-01-13T12:19:00.820Z,9.00
2019-01-13T12:21:30.400Z,9.10
2019-01-13T12:23:59.914Z,9.10
2019-01-13T12:26:29.558Z,9.10
2019-01-13T12:28:59.364Z,9.00
2019-01-13T12:31:29.081Z,9.00
2019-01-13T12:33:58.614Z,9.00
2019-01-13T12:36:28.222Z,9.00
2019-01-13T12:38:57.767Z,9.00
2019-01-13T12:41:27.262Z,9.00
2019-01-13T12:43:56.801Z,9.00
2019-01-13T12:46:26.487Z,9.10
2019-01-13T12:48:56.083Z,9.00
2019-01-13T12:51:25.754Z,9.10
2019-01-13T12:53:55.254Z,9.10
2019-01-13T12:56:24.798Z,9.10
2019-01-13T12:58:54.542Z,9.10
2019-01-13T13:01:24.231Z,9.10
2019-01-13T13:03:53.827Z,9.10
2019-01-13T13:06:23.591Z,9.10
2019-01-13T13:08:53.289Z,9.00
2019-01-13T13:11:23.052Z,9.00
2019-01-13T13:13:52.683Z,9.00
2019-01-13T13:16:22.569Z,9.10
2019-01-13T13:18:52.155Z,9.10
2019-01-13T13:21:21.712Z,9.10
2019-01-13T13:23:51.325Z,9.10
2019-01-13T13:26:20.999Z,9.00
2019-01-13T13:28:50.813Z,9.00
2019-01-13T13:31:20.971Z,9.00
2019-01-13T13:33:51.501Z,8.90
2019-01-13T13:36:21.547Z,8.90
2019-01-13T13:38:51.169Z,8.90
2019-01-13T13:41:23.945Z,9.00
2019-01-13T13:43:53.452Z,9.00
2019-01-13T13:46:23.198Z,8.90
2019-01-13T13:48:53.016Z,8.90
2019-01-13T13:51:22.648Z,8.90
2019-01-13T13:53:52.170Z,8.90
2019-01-13T13:56:21.805Z,8.90
2019-01-13T13:58:51.414Z,8.90
2019-01-13T14:01:21.159Z,8.90
2019-01-13T14:03:50.792Z,8.90
2019-01-13T14:06:20.321Z,8.90
2019-01-13T14:08:49.908Z,8.90
2019-01-13T14:11:19.491Z,8.90
2019-01-13T14:13:50.454Z,8.90
2019-01-13T14:16:19.996Z,8.90
2019-01-13T14:18:50.318Z,8.90
2019-01-13T14:21:19.787Z,8.90
2019-01-13T14:23:49.497Z,8.90
2019-01-13T14:26:19.020Z,8.80
2019-01-13T14:28:48.706Z,8.80
2019-01-13T14:31:18.347Z,8.80
2019-01-13T14:33:52.829Z,8.80
2019-01-13T14:36:19.302Z,8.80
2019-01-13T14:38:48.968Z,8.80
2019-01-13T14:41:18.509Z,8.80
2019-01-13T14:43:48.110Z,8.80
2019-01-13T14:46:18.251Z,8.80
2019-01-13T14:48:48.067Z,8.80
2019-01-13T14:51:17.624Z,8.70
2019-01-13T14:53:47.208Z,8.70
2019-01-13T14:56:17.095Z,8.70
2019-01-13T14:58:46.703Z,8.70
2019-01-13T15:01:16.484Z,8.70
2019-01-13T15:03:46.204Z,8.80
2019-01-13T15:06:15.717Z,8.80
2019-01-13T15:08:45.348Z,8.70
2019-01-13T15:11:14.872Z,8.70
2019-01-13T15:13:44.655Z,8.70
2019-01-13T15:16:14.162Z,8.70
2019-01-13T15:18:43.766Z,8.60
2019-01-13T15:21:13.369Z,8.70
2019-01-13T15:23:42.850Z,8.70
2019-01-13T15:26:12.376Z,8.70
2019-01-13T15:28:41.922Z,8.70
2019-01-13T15:31:11.464Z,8.70
2019-01-13T15:33:41.097Z,8.70
2019-01-13T15:36:10.822Z,8.70
2019-01-13T15:38:41.477Z,8.80
2019-01-13T15:41:13.838Z,8.80
2019-01-13T15:43:43.477Z,8.80
2019-01-13T15:46:13.067Z,8.80
2019-01-13T15:48:42.827Z,8.80
2019-01-13T15:51:13.539Z,8.80
2019-01-13T15:53:43.150Z,8.80
2019-01-13T15:56:12.758Z,8.80
2019-01-13T15:58:42.396Z,8.80
2019-01-13T16:01:12.018Z,8.80
2019-01-13T16:03:43.143Z,8.90
2019-01-13T16:06:12.829Z,8.90
2019-01-13T16:08:42.375Z,8.90
2019-01-13T16:11:11.936Z,8.90
2019-01-13T16:13:43.524Z,8.90
2019-01-13T16:16:13.047Z,8.90
2019-01-13T16:18:42.921Z,8.90
2019-01-13T16:21:14.361Z,8.90
2019-01-13T16:23:47.979Z,8.90
2019-01-13T16:26:19.491Z,8.90
2019-01-13T16:28:49.087Z,8.90
2019-01-13T16:31:18.636Z,8.90
2019-01-13T16:33:48.150Z,8.90
2019-01-13T16:36:17.718Z,8.90
2019-01-13T16:38:47.360Z,8.90
2019-01-13T16:41:16.989Z,8.80
2019-01-13T16:43:46.718Z,8.80
2019-01-13T16:46:16.381Z,8.80
2019-01-13T16:48:45.888Z,8.80
2019-01-13T16:51:15.568Z,8.70
2019-01-13T16:53:45.014Z,8.70
2019-01-13T16:56:14.694Z,8.70
2019-01-13T16:58:44.213Z,8.70
2019-01-13T17:01:13.820Z,8.60
2019-01-13T17:03:45.635Z,8.60
2019-01-13T17:06:15.185Z,8.50
2019-01-13T17:08:44.721Z,8.50
2019-01-13T17:11:14.259Z,8.40
2019-01-13T17:13:45.467Z,8.40
2019-01-13T17:16:15.238Z,8.40
2019-01-13T17:18:45.179Z,8.50
2019-01-13T17:21:15.038Z,8.50
2019-01-13T17:23:44.597Z,8.50
2019-01-13T17:26:14.387Z,8.50
2019-01-13T17:28:43.988Z,8.60
2019-01-13T17:31:13.986Z,8.60
2019-01-13T17:33:43.863Z,8.50
2019-01-13T17:36:13.421Z,8.50
2019-01-13T17:38:46.643Z,8.50
2019-01-13T17:41:16.281Z,8.50
2019-01-13T17:43:45.801Z,8.50
2019-01-13T17:46:15.539Z,8.50
2019-01-13T17:48:46.113Z,8.50
2019-01-13T17:51:17.748Z,8.50
2019-01-13T17:53:47.588Z,8.60
2019-01-13T17:56:17.266Z,8.60
2019-01-13T17:58:46.956Z,8.50
2019-01-13T18:01:42.360Z,8.60
2019-01-13T18:04:11.960Z,8.60
2019-01-13T18:06:41.648Z,8.60
2019-01-13T18:09:11.368Z,8.60
2019-01-13T18:11:41.064Z,8.60
2019-01-13T18:14:10.782Z,8.60
2019-01-13T18:16:40.335Z,8.60
2019-01-13T18:19:09.858Z,8.60
2019-01-13T18:21:39.569Z,8.60
2019-01-13T18:24:09.315Z,8.60
2019-01-13T18:26:38.990Z,8.60
2019-01-13T18:29:09.750Z,8.60
2019-01-13T18:31:39.354Z,8.50
2019-01-13T18:34:09.310Z,8.40
2019-01-13T18:36:41.545Z,8.40
2019-01-13T18:39:11.083Z,8.30
2019-01-13T18:41:43.723Z,8.30
2019-01-13T18:44:13.594Z,8.30
2019-01-13T18:46:43.552Z,8.30
2019-01-13T18:49:13.457Z,8.30
2019-01-13T18:54:33.544Z,8.20
2019-01-13T18:57:03.071Z,8.10
2019-01-13T18:59:32.738Z,8.10
2019-01-13T19:02:02.366Z,8.10
2019-01-13T19:04:32.332Z,8.10
2019-01-13T19:07:21.212Z,8.10
2019-01-13T19:09:50.852Z,8.00
2019-01-13T19:12:20.592Z,8.10
2019-01-13T19:14:56.645Z,8.10
2019-01-13T19:17:27.619Z,8.10
2019-01-13T19:20:21.378Z,8.00
2019-01-13T19:22:53.739Z,8.10
2019-01-13T19:25:31.303Z,8.10
2019-01-13T19:28:01.399Z,8.10
2019-01-13T19:30:31.005Z,8.10
2019-01-13T19:33:00.915Z,8.10
2019-01-13T19:35:31.243Z,8.10
2019-01-13T19:38:01.941Z,8.10
2019-01-13T19:40:31.558Z,8.10
2019-01-13T19:43:02.525Z,8.10
2019-01-13T19:45:32.151Z,8.20
2019-01-13T19:48:01.798Z,8.20
2019-01-13T19:50:31.320Z,8.20
2019-01-13T19:53:00.884Z,8.20
2019-01-13T19:55:30.524Z,8.10
2019-01-13T19:58:00.282Z,8.00
2019-01-13T20:00:35.066Z,8.00
2019-01-13T20:03:06.151Z,7.90
2019-01-13T20:05:36.159Z,8.00
2019-01-13T20:08:06.086Z,8.00
2019-01-13T20:10:35.744Z,8.00
2019-01-13T20:13:05.271Z,8.10
2019-01-13T20:15:34.871Z,8.10
2019-01-13T20:18:04.715Z,8.10
2019-01-13T20:20:34.237Z,8.00
2019-01-13T20:23:03.757Z,7.90
2019-01-13T20:25:33.641Z,7.70
2019-01-13T20:28:03.250Z,7.50
2019-01-13T20:30:33.954Z,7.40
2019-01-13T20:33:04.455Z,7.30
2019-01-13T20:35:33.930Z,7.10
2019-01-13T20:38:03.505Z,7.00
2019-01-13T20:40:33.147Z,6.90
2019-01-13T20:43:02.659Z,6.80
2019-01-13T20:45:35.090Z,6.60
2019-01-13T20:48:05.086Z,6.30
2019-01-13T20:50:34.708Z,6.20
2019-01-13T20:53:04.381Z,6.20
2019-01-13T20:55:34.111Z,6.20
2019-01-13T20:58:03.619Z,6.30
2019-01-13T21:00:33.078Z,6.30
2019-01-13T21:03:02.638Z,6.40
2019-01-13T21:05:32.271Z,6.40
2019-01-13T21:08:01.779Z,6.40
2019-01-13T21:10:31.783Z,6.40
2019-01-13T21:13:01.269Z,6.40
2019-01-13T21:15:34.724Z,6.40
2019-01-13T21:18:04.524Z,6.50
2019-01-13T21:20:34.206Z,6.50
2019-01-13T21:23:03.823Z,6.60
2019-01-13T21:25:39.018Z,6.60
2019-01-13T21:28:08.717Z,6.60
2019-01-13T21:30:38.352Z,6.70
2019-01-13T21:33:07.912Z,6.70
2019-01-13T21:35:40.430Z,6.70
2019-01-13T21:38:09.987Z,6.70
2019-01-13T21:40:39.758Z,6.70
2019-01-13T21:43:09.278Z,6.70
2019-01-13T21:45:38.961Z,6.70
2019-01-13T21:48:11.727Z,6.60
2019-01-13T21:50:41.198Z,6.50
2019-01-13T21:53:10.788Z,6.50
2019-01-13T21:55:40.903Z,6.50
2019-01-13T21:58:10.447Z,6.50
2019-01-13T22:00:40.131Z,6.60
2019-01-13T22:03:09.661Z,6.70
2019-01-13T22:05:41.111Z,6.80
2019-01-13T22:08:10.566Z,6.80
2019-01-13T22:10:40.438Z,6.80
2019-01-13T22:13:09.957Z,6.80
2019-01-13T22:15:39.424Z,6.80
2019-01-13T22:18:09.546Z,6.90
2019-01-13T22:20:39.240Z,6.90
2019-01-13T22:23:08.772Z,6.90
2019-01-13T22:25:38.666Z,6.90
2019-01-13T22:28:10.817Z,6.90
2019-01-13T22:30:40.442Z,7.00
2019-01-13T22:33:12.644Z,7.00
2019-01-13T22:35:48.099Z,7.00
2019-01-13T22:38:13.831Z,7.00
2019-01-13T22:40:43.691Z,7.00
2019-01-13T22:43:13.212Z,7.00
2019-01-13T22:45:43.004Z,6.90
2019-01-13T22:48:12.640Z,6.90
2019-01-13T22:50:43.439Z,6.90
2019-01-13T22:53:12.959Z,7.10
2019-01-13T22:55:42.833Z,7.00
2019-01-13T22:58:15.105Z,7.00
2019-01-13T23:01:19.280Z,6.90
2019-01-13T23:03:48.943Z,6.90
2019-01-13T23:06:18.568Z,6.90
2019-01-13T23:08:48.991Z,6.90
2019-01-13T23:11:18.773Z,7.00
2019-01-13T23:13:48.589Z,7.00
2019-01-13T23:16:18.110Z,7.00
2019-01-13T23:18:47.720Z,7.00
2019-01-13T23:21:17.290Z,7.00
2019-01-13T23:23:46.845Z,7.00
2019-01-13T23:26:16.410Z,7.00
2019-01-13T23:28:46.251Z,7.00
2019-01-13T23:31:15.781Z,7.00
2019-01-13T23:33:45.403Z,7.00
2019-01-13T23:36:15.025Z,7.00
2019-01-13T23:38:44.573Z,7.00
2019-01-13T23:41:14.087Z,7.00
2019-01-13T23:43:46.566Z,7.00
2019-01-13T23:46:16.157Z,7.00
2019-01-13T23:48:45.750Z,6.90
2019-01-13T23:51:15.488Z,6.90
2019-01-13T23:53:45.228Z,6.90
2019-01-13T23:56:14.706Z,7.00
2019-01-13T23:58:44.341Z,6.90
